Time;durP1;ratioP1;P1;durP2;ratioP2;P2;SDS_P1;SDS_P2;PMS_P1;PMS_P2;Temp;Humidity;BMP_temperature;BMP_pressure;BME280_temperature;BME280_humidity;BME280_pressure;Samples;Min_cycle;Max_cycle;Signal;HPM_P1;HPM_P2
2021/06/21 00:00:10;;;;;;;5.18;2.10;;;18.50;81.70;;;;;;5154708;27;20497;-91
2021/06/21 00:02:36;;;;;;;7.20;2.72;;;18.50;81.40;;;;;;5156667;27;20127;-94
2021/06/21 00:05:03;;;;;;;6.53;2.42;;;18.50;81.90;;;;;;5157222;27;20043;-94
2021/06/21 00:07:28;;;;;;;6.35;2.35;;;18.40;82.00;;;;;;5166421;27;20391;-93
2021/06/21 00:09:54;;;;;;;5.80;2.20;;;18.40;82.10;;;;;;5178508;27;20058;-94
2021/06/21 00:12:20;;;;;;;7.07;2.35;;;18.40;81.80;;;;;;5178986;27;20045;-92
2021/06/21 00:14:46;;;;;;;5.47;2.10;;;18.30;82.20;;;;;;5176715;27;20050;-95
2021/06/21 00:17:12;;;;;;;8.18;2.33;;;18.30;82.10;;;;;;5178847;27;20045;-93
2021/06/21 00:19:37;;;;;;;5.47;2.13;;;18.30;81.60;;;;;;5177178;27;20046;-93
2021/06/21 00:22:05;;;;;;;8.60;2.30;;;18.30;82.10;;;;;;5177535;27;20042;-94
2021/06/21 00:24:32;;;;;;;6.38;2.40;;;18.20;82.40;;;;;;5177406;27;20061;-92
2021/06/21 00:26:57;;;;;;;6.75;2.45;;;18.30;82.70;;;;;;5176001;27;20086;-92
2021/06/21 00:29:23;;;;;;;6.82;2.40;;;18.30;82.60;;;;;;5176698;27;20050;-91
2021/06/21 00:31:50;;;;;;;4.55;2.10;;;18.20;82.30;;;;;;5176722;27;20079;-93
2021/06/21 00:34:15;;;;;;;8.25;2.60;;;18.30;82.60;;;;;;5176296;27;20042;-94
2021/06/21 00:36:41;;;;;;;6.65;2.30;;;18.30;82.40;;;;;;5177015;27;20349;-90
2021/06/21 00:39:09;;;;;;;7.38;2.40;;;18.20;82.30;;;;;;5177199;27;20046;-93
2021/06/21 00:41:36;;;;;;;7.97;2.33;;;18.20;82.30;;;;;;5176499;27;20470;-94
2021/06/21 00:44:03;;;;;;;5.78;2.20;;;18.20;82.00;;;;;;5176133;27;20507;-92
2021/06/21 00:46:28;;;;;;;7.30;2.33;;;18.10;82.20;;;;;;5176239;27;20043;-93
2021/06/21 00:48:54;;;;;;;6.00;2.13;;;18.10;81.90;;;;;;5176993;27;20062;-93
2021/06/21 00:51:20;;;;;;;7.60;2.20;;;18.10;82.10;;;;;;5176880;27;20042;-96
2021/06/21 00:53:47;;;;;;;8.68;2.15;;;18.10;81.70;;;;;;5176163;27;20046;-91
2021/06/21 00:56:13;;;;;;;7.47;2.40;;;18.00;82.00;;;;;;5176982;27;20493;-92
2021/06/21 00:58:40;;;;;;;7.43;2.25;;;18.00;82.10;;;;;;5172133;27;20042;-90
2021/06/21 01:01:06;;;;;;;6.38;2.30;;;18.00;82.10;;;;;;5170229;27;20138;-90
2021/06/21 01:03:31;;;;;;;6.65;2.45;;;18.00;82.20;;;;;;5164882;27;20055;-91
2021/06/21 01:05:57;;;;;;;6.13;2.13;;;18.00;81.90;;;;;;5165216;27;20482;-93
2021/06/21 01:08:23;;;;;;;4.68;2.08;;;17.90;82.20;;;;;;5163673;27;20137;-89
2021/06/21 01:10:53;;;;;;;4.35;1.90;;;18.00;82.30;;;;;;5162415;27;20504;-91
2021/06/21 01:13:30;;;;;;;5.15;1.90;;;17.90;82.10;;;;;;5169831;27;20070;-91
2021/06/21 01:16:07;;;;;;;6.80;2.25;;;17.90;81.90;;;;;;5176332;27;20048;-90
2021/06/21 01:18:34;;;;;;;4.57;1.95;;;17.80;81.60;;;;;;5176992;27;20039;-90
2021/06/21 01:21:49;;;;;;;4.63;1.90;;;17.80;82.00;;;;;;5177885;27;20106;-90
2021/06/21 01:24:59;;;;;;;6.88;2.25;;;17.80;81.90;;;;;;5150157;27;20538;-92
2021/06/21 01:27:40;;;;;;;5.00;2.03;;;17.80;81.70;;;;;;5165482;27;20103;-92
2021/06/21 01:30:12;;;;;;;5.88;2.13;;;17.80;82.80;;;;;;5155350;27;20095;-90
2021/06/21 01:32:48;;;;;;;4.47;2.00;;;17.80;82.30;;;;;;5154830;27;20154;-90
2021/06/21 01:35:34;;;;;;;6.40;1.90;;;17.80;81.40;;;;;;5155957;27;20553;-91
2021/06/21 01:38:04;;;;;;;5.43;2.08;;;17.80;81.60;;;;;;5155807;27;20401;-91
2021/06/21 01:40:38;;;;;;;6.40;2.10;;;17.80;82.40;;;;;;5155066;27;20063;-92
2021/06/21 01:43:06;;;;;;;5.35;1.70;;;17.70;82.60;;;;;;5154929;27;20058;-91
2021/06/21 01:45:35;;;;;;;5.88;2.10;;;17.80;82.60;;;;;;5155212;27;20066;-91
2021/06/21 01:48:02;;;;;;;5.13;1.90;;;17.80;82.70;;;;;;5155226;27;20495;-90
2021/06/21 01:50:29;;;;;;;4.47;1.70;;;17.80;82.50;;;;;;5154999;27;20137;-90
2021/06/21 01:53:18;;;;;;;5.93;1.90;;;17.70;82.60;;;;;;5154824;27;20073;-90
2021/06/21 01:56:00;;;;;;;6.88;1.75;;;17.80;81.90;;;;;;5154741;27;20050;-90
2021/06/21 01:58:27;;;;;;;4.45;1.73;;;17.70;82.50;;;;;;5158340;27;20412;-90
2021/06/21 02:00:53;;;;;;;4.88;1.90;;;17.70;82.80;;;;;;5159752;27;20425;-92
2021/06/21 02:03:20;;;;;;;4.32;1.65;;;17.70;82.50;;;;;;5158527;27;20074;-90
2021/06/21 02:05:50;;;;;;;4.78;1.60;;;17.70;82.60;;;;;;5163001;27;20140;-92
2021/06/21 02:08:18;;;;;;;4.22;1.70;;;17.70;82.30;;;;;;5179889;27;20077;-91
2021/06/21 02:10:47;;;;;;;3.50;1.67;;;17.70;82.40;;;;;;5178970;27;20039;-89
2021/06/21 02:13:13;;;;;;;6.18;1.70;;;17.70;82.60;;;;;;5179289;27;20078;-90
2021/06/21 02:15:40;;;;;;;4.15;1.83;;;17.70;83.40;;;;;;5179725;27;20071;-92
2021/06/21 02:18:08;;;;;;;5.28;1.80;;;17.70;82.40;;;;;;5179629;27;20074;-90
2021/06/21 02:20:34;;;;;;;4.72;1.92;;;17.70;82.70;;;;;;5178971;27;20129;-91
2021/06/21 02:23:00;;;;;;;4.75;1.90;;;17.60;82.50;;;;;;5179014;27;20095;-90
2021/06/21 02:25:39;;;;;;;5.13;1.85;;;17.60;82.50;;;;;;5166674;27;20043;-90
2021/06/21 02:28:05;;;;;;;5.18;1.63;;;17.60;82.50;;;;;;5157104;27;20058;-90
2021/06/21 02:30:34;;;;;;;4.95;1.85;;;17.60;82.50;;;;;;5157372;27;20050;-89
2021/06/21 02:32:59;;;;;;;6.28;1.90;;;17.60;82.80;;;;;;5156575;27;20042;-90
2021/06/21 02:35:27;;;;;;;5.88;1.58;;;17.50;82.80;;;;;;5158328;27;20058;-89
2021/06/21 02:37:52;;;;;;;4.40;1.60;;;17.50;83.00;;;;;;5178028;27;20049;-87
2021/06/21 02:40:18;;;;;;;5.07;1.70;;;17.50;83.00;;;;;;5176823;27;20417;-91
2021/06/21 02:42:45;;;;;;;4.90;1.50;;;17.50;83.10;;;;;;5177778;27;20053;-92
2021/06/21 02:45:12;;;;;;;4.70;1.60;;;17.50;83.20;;;;;;5168088;27;20087;-89
2021/06/21 02:47:39;;;;;;;3.50;1.52;;;17.50;83.00;;;;;;5156461;27;20050;-89
2021/06/21 02:50:07;;;;;;;5.20;1.60;;;17.40;83.30;;;;;;5156959;27;20047;-89
2021/06/21 02:52:56;;;;;;;4.45;1.60;;;17.40;83.20;;;;;;5174176;27;20482;-89
2021/06/21 02:55:48;;;;;;;4.60;1.75;;;17.40;83.00;;;;;;5177885;27;20053;-89
2021/06/21 02:58:26;;;;;;;5.45;1.58;;;17.40;82.90;;;;;;5177642;27;20382;-89
2021/06/21 03:00:54;;;;;;;4.05;1.48;;;17.40;83.20;;;;;;5177087;27;20057;-89
2021/06/21 03:03:26;;;;;;;4.50;1.60;;;17.40;83.40;;;;;;5177521;27;20477;-89
2021/06/21 03:05:53;;;;;;;5.20;1.70;;;17.30;83.60;;;;;;5173268;27;20046;-89
2021/06/21 03:08:19;;;;;;;7.38;1.40;;;17.30;83.50;;;;;;5154596;27;20055;-87
2021/06/21 03:10:46;;;;;;;4.47;1.90;;;17.30;83.70;;;;;;5156166;27;20039;-89
2021/06/21 03:13:13;;;;;;;5.25;1.90;;;17.30;83.80;;;;;;5156715;27;20052;-89
2021/06/21 03:15:40;;;;;;;4.68;2.13;;;17.30;83.80;;;;;;5155503;27;20478;-88
2021/06/21 03:18:09;;;;;;;4.47;1.75;;;17.30;83.50;;;;;;5156240;27;20047;-90
2021/06/21 03:20:35;;;;;;;5.25;2.20;;;17.20;83.10;;;;;;5156206;27;20055;-88
2021/06/21 03:23:03;;;;;;;6.38;2.00;;;17.20;82.70;;;;;;5155440;27;20057;-89
2021/06/21 03:25:31;;;;;;;4.97;2.00;;;17.20;83.30;;;;;;5156185;27;20497;-89
2021/06/21 03:27:58;;;;;;;5.88;2.00;;;17.20;83.90;;;;;;5156068;27;20163;-88
2021/06/21 03:30:25;;;;;;;4.65;2.38;;;17.10;84.00;;;;;;5159359;27;20125;-88
2021/06/21 03:32:53;;;;;;;3.90;1.80;;;17.10;84.10;;;;;;5176905;27;20050;-89
2021/06/21 03:35:21;;;;;;;4.65;2.30;;;17.10;84.00;;;;;;5176594;27;20042;-87
2021/06/21 03:37:47;;;;;;;6.07;2.28;;;17.10;83.90;;;;;;5156183;27;20138;-89
2021/06/21 03:40:14;;;;;;;6.88;2.30;;;17.10;83.70;;;;;;5155723;27;20091;-88
2021/06/21 03:42:40;;;;;;;6.05;2.40;;;17.10;84.00;;;;;;5156090;27;20069;-89
2021/06/21 03:45:10;;;;;;;7.40;2.10;;;17.10;84.20;;;;;;5156095;27;20042;-90
2021/06/21 03:47:36;;;;;;;8.90;2.88;;;17.10;84.20;;;;;;5155906;27;20610;-90
2021/06/21 03:50:03;;;;;;;6.00;2.25;;;17.00;83.70;;;;;;5156246;27;20482;-90
2021/06/21 03:52:29;;;;;;;5.50;2.30;;;17.00;83.80;;;;;;5156278;27;20043;-90
2021/06/21 03:55:06;;;;;;;7.05;2.60;;;17.00;84.00;;;;;;5156391;27;20038;-90
2021/06/21 03:57:42;;;;;;;7.82;2.70;;;17.00;84.10;;;;;;5154679;27;20081;-89
2021/06/21 04:00:16;;;;;;;5.28;2.45;;;16.90;83.80;;;;;;5154812;27;20071;-89
2021/06/21 04:02:42;;;;;;;6.90;2.47;;;16.90;83.90;;;;;;5155218;27;20046;-87
2021/06/21 04:05:09;;;;;;;8.23;2.63;;;16.90;84.00;;;;;;5154042;27;20142;-90
2021/06/21 04:07:35;;;;;;;6.50;2.30;;;16.90;84.20;;;;;;5154438;27;20051;-88
2021/06/21 04:10:05;;;;;;;6.13;2.55;;;16.80;84.40;;;;;;5158985;27;20500;-90
2021/06/21 04:12:31;;;;;;;5.30;2.33;;;16.80;85.20;;;;;;5158750;27;20129;-89
2021/06/21 04:14:57;;;;;;;7.85;2.50;;;16.80;84.80;;;;;;5155063;27;20046;-90
2021/06/21 04:17:23;;;;;;;6.97;2.30;;;16.70;84.60;;;;;;5154144;27;20406;-89
2021/06/21 04:19:50;;;;;;;7.00;2.47;;;16.70;85.00;;;;;;5154378;27;20098;-88
2021/06/21 04:22:17;;;;;;;6.78;2.30;;;16.80;85.10;;;;;;5154816;27;20038;-90
2021/06/21 04:24:43;;;;;;;6.78;2.17;;;16.70;85.00;;;;;;5153896;27;20052;-89
2021/06/21 04:27:09;;;;;;;5.03;2.20;;;16.70;85.00;;;;;;5154882;27;20058;-87
2021/06/21 04:29:35;;;;;;;5.63;2.30;;;16.70;85.20;;;;;;5155593;27;20845;-88
2021/06/21 04:32:01;;;;;;;6.20;2.10;;;16.70;85.20;;;;;;5154098;27;20171;-90
2021/06/21 04:34:28;;;;;;;7.03;2.28;;;16.70;85.20;;;;;;5154305;27;20497;-87
2021/06/21 04:36:54;;;;;;;6.30;2.20;;;16.70;84.70;;;;;;5154612;27;20054;-90
2021/06/21 04:39:22;;;;;;;7.97;2.20;;;16.60;85.10;;;;;;5156403;27;20091;-89
2021/06/21 04:41:47;;;;;;;5.88;2.00;;;16.60;85.20;;;;;;5175574;27;20042;-88
2021/06/21 04:44:34;;;;;;;5.82;2.38;;;16.60;85.40;;;;;;5159561;27;20436;-88
2021/06/21 04:47:00;;;;;;;6.28;2.25;;;16.60;85.50;;;;;;5174716;27;20053;-88
2021/06/21 04:49:26;;;;;;;5.90;2.20;;;16.50;85.10;;;;;;5170791;27;20402;-90
2021/06/21 04:51:52;;;;;;;8.25;2.20;;;16.60;85.20;;;;;;5154332;27;20077;-89
2021/06/21 04:54:18;;;;;;;5.43;2.28;;;16.50;85.40;;;;;;5153884;27;20039;-88
2021/06/21 04:56:44;;;;;;;5.20;2.00;;;16.50;85.70;;;;;;5153994;27;20050;-87
2021/06/21 04:59:10;;;;;;;6.28;2.40;;;16.60;85.80;;;;;;5154477;27;20550;-86
2021/06/21 05:01:35;;;;;;;4.70;1.98;;;16.50;85.30;;;;;;5157193;27;20038;-87
2021/06/21 05:04:04;;;;;;;5.18;2.00;;;16.50;85.40;;;;;;5154289;27;20073;-87
2021/06/21 05:06:32;;;;;;;6.05;2.20;;;16.50;85.30;;;;;;5153496;27;20549;-86
2021/06/21 05:08:58;;;;;;;5.05;2.50;;;16.50;85.70;;;;;;5155056;27;20050;-88
2021/06/21 05:11:24;;;;;;;5.00;2.10;;;16.50;85.90;;;;;;5162852;27;20054;-87
2021/06/21 05:13:49;;;;;;;5.85;2.00;;;16.50;85.90;;;;;;5153334;27;20042;-87
2021/06/21 05:16:16;;;;;;;5.03;2.25;;;16.50;86.20;;;;;;5160662;27;20047;-89
2021/06/21 05:18:42;;;;;;;6.32;2.28;;;16.50;85.90;;;;;;5142450;27;20046;-88
2021/06/21 05:21:08;;;;;;;5.78;2.03;;;16.50;85.90;;;;;;5161368;27;20043;-87
2021/06/21 05:23:33;;;;;;;5.75;2.03;;;16.50;86.00;;;;;;5163899;27;20065;-87
2021/06/21 05:25:59;;;;;;;5.00;2.22;;;16.50;86.20;;;;;;5163845;27;20050;-87
2021/06/21 05:28:25;;;;;;;5.72;2.05;;;16.40;86.20;;;;;;5161083;27;20042;-89
2021/06/21 05:30:51;;;;;;;6.82;2.33;;;16.40;86.50;;;;;;5174201;27;20045;-88
2021/06/21 05:33:16;;;;;;;6.18;2.33;;;16.40;86.30;;;;;;5178344;27;20057;-87
2021/06/21 05:35:42;;;;;;;6.75;2.53;;;16.40;86.60;;;;;;5174555;27;20045;-88
2021/06/21 05:38:08;;;;;;;8.40;2.80;;;16.40;86.50;;;;;;5179088;27;20047;-89
2021/06/21 05:40:34;;;;;;;5.03;2.20;;;16.40;86.80;;;;;;5164707;27;20057;-88
2021/06/21 05:43:00;;;;;;;5.50;2.38;;;16.40;86.50;;;;;;5157043;27;20472;-88
2021/06/21 05:45:26;;;;;;;5.68;2.55;;;16.40;86.20;;;;;;5161252;27;20382;-88
2021/06/21 05:47:52;;;;;;;5.93;2.50;;;16.40;87.00;;;;;;5178647;27;20054;-87
2021/06/21 05:50:17;;;;;;;5.30;2.35;;;16.40;86.50;;;;;;5177589;27;20505;-82
2021/06/21 05:52:43;;;;;;;6.47;2.53;;;16.40;86.50;;;;;;5178352;27;20406;-82
2021/06/21 05:55:10;;;;;;;6.68;2.60;;;16.30;86.30;;;;;;5178760;27;20074;-87
2021/06/21 05:57:36;;;;;;;8.57;2.80;;;16.40;86.50;;;;;;5177606;27;20042;-86
2021/06/21 06:00:04;;;;;;;7.05;2.58;;;16.30;86.30;;;;;;5174831;27;20038;-86
2021/06/21 06:02:30;;;;;;;6.10;2.42;;;16.30;86.10;;;;;;5173315;27;20042;-88
2021/06/21 06:04:56;;;;;;;6.72;2.60;;;16.30;86.40;;;;;;5176535;27;20141;-90
2021/06/21 06:07:23;;;;;;;6.38;2.53;;;16.30;86.70;;;;;;5170608;27;20083;-92
2021/06/21 06:09:50;;;;;;;6.22;2.65;;;16.30;86.70;;;;;;5167330;27;20172;-89
2021/06/21 06:12:17;;;;;;;6.72;2.78;;;16.30;86.70;;;;;;5169828;27;20121;-90
2021/06/21 06:14:42;;;;;;;5.40;2.40;;;16.40;86.70;;;;;;5173316;27;20038;-88
2021/06/21 06:17:08;;;;;;;6.55;2.17;;;16.40;86.60;;;;;;5160999;27;20485;-89
2021/06/21 06:19:34;;;;;;;5.95;2.20;;;16.40;86.70;;;;;;5159856;27;20501;-90
2021/06/21 06:22:00;;;;;;;6.55;2.60;;;16.30;86.30;;;;;;5161294;27;20043;-90
2021/06/21 06:24:26;;;;;;;5.15;2.33;;;16.30;87.10;;;;;;5160874;27;20050;-89
2021/06/21 06:26:52;;;;;;;8.32;2.63;;;16.30;86.40;;;;;;5177815;27;20099;-89
2021/06/21 06:29:19;;;;;;;7.75;2.72;;;16.30;86.60;;;;;;5178066;27;20074;-89
2021/06/21 06:31:47;;;;;;;7.38;2.55;;;16.30;86.70;;;;;;5171079;27;20042;-87
2021/06/21 06:34:13;;;;;;;7.78;2.40;;;16.30;86.80;;;;;;5177797;27;20069;-87
2021/06/21 06:36:39;;;;;;;7.57;2.30;;;16.30;86.90;;;;;;5177528;27;20446;-86
2021/06/21 06:39:06;;;;;;;5.07;2.33;;;16.30;87.00;;;;;;5176012;27;20133;-86
2021/06/21 06:41:32;;;;;;;8.68;2.40;;;16.30;87.00;;;;;;5165054;27;20374;-87
2021/06/21 06:43:58;;;;;;;6.72;2.28;;;16.30;87.20;;;;;;5177169;27;20054;-86
2021/06/21 06:46:23;;;;;;;7.22;2.40;;;16.30;87.20;;;;;;5176131;27;20518;-88
2021/06/21 06:48:49;;;;;;;5.78;2.40;;;16.30;87.10;;;;;;5163108;27;20050;-87
2021/06/21 06:51:15;;;;;;;6.93;2.22;;;16.30;87.30;;;;;;5156781;27;20038;-85
2021/06/21 06:54:01;;;;;;;8.35;2.78;;;16.30;87.40;;;;;;5155544;27;20057;-86
2021/06/21 06:59:11;;;;;;;6.30;2.38;;;16.30;87.20;;;;;;5158268;27;20104;-87
2021/06/21 07:01:36;;;;;;;7.78;2.50;;;16.20;87.30;;;;;;5160142;27;20412;-85
2021/06/21 07:04:03;;;;;;;7.40;2.42;;;16.20;87.50;;;;;;5160061;27;20046;-86
2021/06/21 07:06:29;;;;;;;5.35;2.38;;;16.20;87.40;;;;;;5156025;27;20402;-85
2021/06/21 07:08:54;;;;;;;8.68;2.60;;;16.30;87.50;;;;;;5165452;27;20130;-86
2021/06/21 07:11:20;;;;;;;7.95;2.85;;;16.20;87.60;;;;;;5159940;27;20363;-83
2021/06/21 07:13:46;;;;;;;6.78;2.25;;;16.20;87.80;;;;;;5154589;27;20078;-85
2021/06/21 07:16:12;;;;;;;6.00;2.40;;;16.20;88.00;;;;;;5156026;27;20051;-85
2021/06/21 07:18:38;;;;;;;7.15;2.80;;;16.20;87.90;;;;;;5163809;27;20497;-84
2021/06/21 07:21:04;;;;;;;9.63;2.65;;;16.20;88.20;;;;;;5156125;27;20047;-85
2021/06/21 07:23:30;;;;;;;9.05;2.90;;;16.10;88.20;;;;;;5162743;27;20506;-85
2021/06/21 07:25:57;;;;;;;9.68;2.90;;;16.10;88.30;;;;;;5164645;27;20050;-85
2021/06/21 07:28:24;;;;;;;7.05;2.72;;;16.00;88.60;;;;;;5162279;27;20095;-85
2021/06/21 07:30:50;;;;;;;7.88;2.53;;;16.10;88.70;;;;;;5156546;27;20047;-84
2021/06/21 07:33:15;;;;;;;7.93;2.50;;;16.00;88.70;;;;;;5171796;27;20053;-85
2021/06/21 07:35:41;;;;;;;10.10;2.70;;;16.00;88.80;;;;;;5157772;27;20413;-83
2021/06/21 07:38:10;;;;;;;8.35;2.97;;;16.00;88.60;;;;;;5168620;27;20414;-83
2021/06/21 07:40:38;;;;;;;7.03;2.42;;;16.00;88.70;;;;;;5165949;27;20073;-84
2021/06/21 07:43:04;;;;;;;7.90;2.70;;;16.00;88.80;;;;;;5157966;27;20043;-83
2021/06/21 07:45:30;;;;;;;6.85;2.60;;;16.00;89.00;;;;;;5156329;27;20619;-84
2021/06/21 07:47:58;;;;;;;7.53;2.65;;;16.00;89.00;;;;;;5170026;27;20039;-83
2021/06/21 07:50:27;;;;;;;6.95;2.60;;;16.00;88.90;;;;;;5163646;27;20090;-85
2021/06/21 07:52:53;;;;;;;8.40;2.65;;;16.00;88.90;;;;;;5164491;27;20045;-84
2021/06/21 07:55:19;;;;;;;7.15;2.55;;;16.00;89.00;;;;;;5170370;27;20409;-84
2021/06/21 07:57:45;;;;;;;9.75;2.70;;;16.00;88.90;;;;;;5158731;27;20121;-83
2021/06/21 08:00:11;;;;;;;6.55;2.35;;;16.00;89.10;;;;;;5167420;27;20043;-83
2021/06/21 08:02:36;;;;;;;9.77;2.70;;;16.00;89.20;;;;;;5164934;27;20042;-83
2021/06/21 08:05:03;;;;;;;8.23;3.00;;;16.00;89.10;;;;;;5159938;27;20091;-83
2021/06/21 08:07:28;;;;;;;8.90;2.10;;;16.00;89.30;;;;;;5163193;27;20560;-82
2021/06/21 08:09:54;;;;;;;8.55;2.58;;;16.00;89.40;;;;;;5159621;27;20134;-83
2021/06/21 08:12:20;;;;;;;9.05;2.42;;;16.00;89.30;;;;;;5170935;27;20444;-83
2021/06/21 08:14:46;;;;;;;6.93;2.13;;;16.00;89.30;;;;;;5160499;27;20075;-81
2021/06/21 08:17:12;;;;;;;7.85;2.45;;;16.00;89.30;;;;;;5158390;27;20084;-81
2021/06/21 08:19:38;;;;;;;8.05;2.20;;;16.00;89.30;;;;;;5165525;27;20058;-84
2021/06/21 08:22:04;;;;;;;7.85;2.53;;;16.00;89.20;;;;;;5158056;27;20042;-84
2021/06/21 08:24:30;;;;;;;7.40;2.00;;;16.00;89.20;;;;;;5158220;27;20486;-85
2021/06/21 08:27:00;;;;;;;5.40;2.35;;;16.00;89.40;;;;;;5154360;27;20046;-84
2021/06/21 08:29:26;;;;;;;8.77;2.40;;;16.00;89.20;;;;;;5165889;27;20498;-83
2021/06/21 08:31:51;;;;;;;8.88;2.45;;;16.00;89.00;;;;;;5158448;27;20053;-83
2021/06/21 08:34:17;;;;;;;6.45;2.00;;;15.90;89.00;;;;;;5165609;27;20077;-83
2021/06/21 08:36:42;;;;;;;7.10;2.25;;;15.90;89.40;;;;;;5169192;27;20046;-84
2021/06/21 08:39:08;;;;;;;7.13;2.25;;;15.90;89.50;;;;;;5160680;27;20048;-84
2021/06/21 08:41:36;;;;;;;6.93;2.00;;;15.90;89.40;;;;;;5167382;27;20046;-84
2021/06/21 08:44:02;;;;;;;7.05;2.50;;;15.90;89.20;;;;;;5162357;27;20128;-84
2021/06/21 08:46:28;;;;;;;7.30;2.13;;;15.90;89.10;;;;;;5163363;27;20038;-84
2021/06/21 08:48:55;;;;;;;7.85;2.15;;;15.90;89.20;;;;;;5167458;27;20046;-86
2021/06/21 08:51:22;;;;;;;5.75;2.20;;;15.90;89.20;;;;;;5170851;27;20050;-84
2021/06/21 08:53:48;;;;;;;8.10;2.00;;;15.90;89.20;;;;;;5157851;27;20052;-84
2021/06/21 08:56:14;;;;;;;6.18;2.10;;;15.90;89.10;;;;;;5173210;27;20046;-83
2021/06/21 08:58:40;;;;;;;5.70;1.90;;;15.90;89.10;;;;;;5161168;27;20490;-84
2021/06/21 09:01:09;;;;;;;6.65;2.20;;;16.00;89.10;;;;;;5153673;27;20046;-83
2021/06/21 09:03:35;;;;;;;7.68;2.33;;;15.90;88.80;;;;;;5170337;27;20038;-83
2021/06/21 09:06:01;;;;;;;7.63;2.20;;;15.90;88.90;;;;;;5161387;27;20054;-84
2021/06/21 09:08:27;;;;;;;6.40;2.15;;;15.90;89.00;;;;;;5167347;27;20126;-84
2021/06/21 09:10:53;;;;;;;5.30;2.05;;;15.90;89.10;;;;;;5163887;27;20081;-84
2021/06/21 09:13:19;;;;;;;7.93;2.03;;;15.90;89.20;;;;;;5175239;27;20043;-86
2021/06/21 09:15:53;;;;;;;6.05;2.20;;;15.90;89.20;;;;;;5159279;27;20054;-85
2021/06/21 09:18:39;;;;;;;7.47;2.40;;;15.90;89.20;;;;;;5167241;27;20046;-83
2021/06/21 09:21:30;;;;;;;6.63;2.17;;;16.00;89.00;;;;;;5162359;27;20392;-81
2021/06/21 09:23:58;;;;;;;6.28;1.88;;;15.90;88.90;;;;;;5160648;27;20060;-82
2021/06/21 09:26:30;;;;;;;7.95;2.35;;;15.90;89.50;;;;;;5163702;27;20548;-81
2021/06/21 09:28:58;;;;;;;7.60;2.25;;;15.90;89.40;;;;;;5165252;27;20061;-82
2021/06/21 09:31:25;;;;;;;7.90;2.25;;;15.90;89.50;;;;;;5162247;27;20038;-81
2021/06/21 09:33:52;;;;;;;7.15;2.03;;;15.90;89.60;;;;;;5161874;27;20102;-81
2021/06/21 09:36:29;;;;;;;6.25;1.85;;;15.90;89.40;;;;;;5176809;27;20378;-82
2021/06/21 09:39:14;;;;;;;5.97;1.92;;;15.80;89.40;;;;;;5168847;27;20039;-82
2021/06/21 09:41:39;;;;;;;8.40;2.13;;;15.80;89.60;;;;;;5158309;27;20080;-81
2021/06/21 09:44:05;;;;;;;8.35;2.10;;;15.80;89.90;;;;;;5171468;27;20050;-84
2021/06/21 09:46:30;;;;;;;5.30;1.75;;;15.80;90.00;;;;;;5161739;27;20057;-85
2021/06/21 09:48:56;;;;;;;7.15;1.80;;;15.70;89.90;;;;;;5164617;27;20478;-83
2021/06/21 09:51:29;;;;;;;7.95;2.10;;;15.70;90.00;;;;;;5160588;27;20046;-85
2021/06/21 09:53:56;;;;;;;5.00;1.60;;;15.70;90.00;;;;;;5172748;27;20043;-84
2021/06/21 09:56:56;;;;;;;8.05;2.22;;;15.70;90.00;;;;;;5158763;27;20039;-82
2021/06/21 09:59:33;;;;;;;5.20;1.63;;;15.70;90.00;;;;;;5157735;27;20050;-85
2021/06/21 10:02:06;;;;;;;7.90;1.90;;;15.70;90.20;;;;;;5171222;27;20038;-85
2021/06/21 10:04:33;;;;;;;;;;;15.70;90.10;;;;;;5167631;27;20050;-83
2021/06/21 10:06:59;;;;;;;6.90;1.70;;;15.60;89.80;;;;;;5161889;27;19919;-85
2021/06/21 10:09:25;;;;;;;5.90;1.60;;;15.70;90.10;;;;;;5154104;27;20068;-85
2021/06/21 10:11:52;;;;;;;7.13;1.70;;;15.70;90.10;;;;;;5162022;27;20427;-88
2021/06/21 10:14:20;;;;;;;4.95;1.90;;;15.70;90.00;;;;;;5168127;27;20070;-85
2021/06/21 10:16:48;;;;;;;6.03;1.80;;;15.70;90.00;;;;;;5159425;27;20050;-86
2021/06/21 10:19:15;;;;;;;6.70;1.65;;;15.70;89.90;;;;;;5156802;27;20047;-83
2021/06/21 10:21:44;;;;;;;7.20;1.50;;;15.70;89.80;;;;;;5169201;27;20062;-87
2021/06/21 10:24:11;;;;;;;4.90;1.65;;;15.60;90.40;;;;;;5164167;27;20117;-85
2021/06/21 10:26:41;;;;;;;5.07;1.40;;;15.60;90.10;;;;;;5165589;27;20046;-87
2021/06/21 10:29:07;;;;;;;4.47;1.40;;;15.60;90.10;;;;;;5159678;27;20095;-87
2021/06/21 10:31:34;;;;;;;4.93;1.48;;;15.60;90.20;;;;;;5172743;27;20393;-85
2021/06/21 10:34:03;;;;;;;5.97;1.60;;;15.60;90.10;;;;;;5166718;27;20046;-86
2021/06/21 10:36:51;;;;;;;6.72;1.70;;;15.60;90.20;;;;;;5176829;27;20042;-87
2021/06/21 10:39:29;;;;;;;5.30;1.70;;;15.60;90.00;;;;;;5159493;27;20042;-85
2021/06/21 10:42:07;;;;;;;4.03;1.33;;;15.60;90.30;;;;;;5172951;27;20050;-86
2021/06/21 10:44:37;;;;;;;4.53;1.48;;;15.50;90.20;;;;;;5166311;27;20035;-88
2021/06/21 10:47:24;;;;;;;4.45;1.70;;;15.60;90.30;;;;;;5159647;27;20091;-89
2021/06/21 10:49:56;;;;;;;5.43;1.77;;;15.60;90.30;;;;;;5161671;27;20073;-84
2021/06/21 10:52:48;;;;;;;4.30;1.27;;;15.60;90.30;;;;;;5166310;27;20099;-83
2021/06/21 10:55:23;;;;;;;6.28;1.40;;;15.50;90.00;;;;;;5173661;27;20405;-84
2021/06/21 10:57:54;;;;;;;5.25;1.38;;;15.50;90.30;;;;;;5156744;27;20528;-84
2021/06/21 11:00:29;;;;;;;4.30;1.35;;;15.50;90.50;;;;;;5164498;27;20042;-83
2021/06/21 11:02:54;;;;;;;6.50;1.60;;;15.50;90.50;;;;;;5165136;27;20043;-84
2021/06/21 11:05:41;;;;;;;5.70;1.48;;;15.50;90.50;;;;;;5172037;27;20057;-84
2021/06/21 11:08:24;;;;;;;3.38;1.13;;;15.50;90.50;;;;;;5162677;27;20513;-85
2021/06/21 11:10:52;;;;;;;5.53;1.47;;;15.50;90.70;;;;;;5169636;27;20049;-85
2021/06/21 11:13:44;;;;;;;6.03;1.50;;;15.50;90.50;;;;;;5157638;27;20292;-85
2021/06/21 11:16:21;;;;;;;6.18;1.50;;;15.50;90.50;;;;;;5156481;27;20050;-85
2021/06/21 11:19:07;;;;;;;5.20;1.63;;;15.40;90.60;;;;;;5155948;27;20446;-85
2021/06/21 11:21:45;;;;;;;6.20;1.60;;;15.40;90.60;;;;;;5161922;27;20485;-85
2021/06/21 11:24:10;;;;;;;5.22;1.58;;;15.40;90.50;;;;;;5156667;27;20478;-82
2021/06/21 11:26:59;;;;;;;7.28;1.70;;;15.40;90.50;;;;;;5165154;27;20054;-86
2021/06/21 11:29:29;;;;;;;6.13;1.50;;;15.40;90.50;;;;;;5160708;27;20043;-86
2021/06/21 11:32:05;;;;;;;3.53;1.13;;;15.40;90.80;;;;;;5164149;27;20095;-85
2021/06/21 11:34:47;;;;;;;6.38;1.55;;;15.30;90.80;;;;;;5162801;27;20042;-84
2021/06/21 11:37:34;;;;;;;5.25;1.50;;;15.30;90.80;;;;;;5168180;27;20073;-85
2021/06/21 11:40:15;;;;;;;6.28;1.80;;;15.30;90.80;;;;;;5161362;27;20042;-84
2021/06/21 11:42:56;;;;;;;5.75;1.60;;;15.30;90.80;;;;;;5162852;27;20557;-85
2021/06/21 11:45:50;;;;;;;8.55;1.80;;;15.40;90.80;;;;;;5157211;27;20043;-85
2021/06/21 11:48:19;;;;;;;;;;;15.40;90.70;;;;;;5162675;27;20073;-85
2021/06/21 11:50:45;;;;;;;4.82;1.50;;;15.30;90.70;;;;;;5167419;27;19918;-86
2021/06/21 11:53:11;;;;;;;4.63;1.45;;;15.40;90.90;;;;;;5159141;27;20051;-85
2021/06/21 11:55:37;;;;;;;7.95;1.50;;;15.40;90.90;;;;;;5171327;27;20039;-86
2021/06/21 11:58:02;;;;;;;8.27;1.60;;;15.50;90.80;;;;;;5155103;27;20442;-85
2021/06/21 12:00:34;;;;;;;6.60;1.60;;;15.50;90.90;;;;;;5157120;27;20060;-85
2021/06/21 12:03:08;;;;;;;6.47;1.50;;;15.50;91.00;;;;;;5169004;27;20051;-86
2021/06/21 12:05:34;;;;;;;6.28;1.40;;;15.50;90.90;;;;;;5171530;27;20405;-86
2021/06/21 12:08:10;;;;;;;8.95;1.63;;;15.50;90.90;;;;;;5161040;27;20048;-85
2021/06/21 12:10:36;;;;;;;4.15;1.45;;;15.50;90.90;;;;;;5171879;27;20053;-86
2021/06/21 12:13:02;;;;;;;5.60;1.55;;;15.50;91.00;;;;;;5159701;27;20043;-85
2021/06/21 12:15:34;;;;;;;6.30;1.50;;;15.50;91.00;;;;;;5158102;27;20501;-85
2021/06/21 12:18:00;;;;;;;6.35;1.48;;;15.40;91.00;;;;;;5158536;27;20042;-85
2021/06/21 12:20:27;;;;;;;5.07;1.30;;;15.40;91.00;;;;;;5158461;27;20038;-86
2021/06/21 12:22:59;;;;;;;5.20;1.38;;;15.40;91.10;;;;;;5160477;27;20066;-83
2021/06/21 12:25:31;;;;;;;5.03;1.40;;;15.50;91.00;;;;;;5168304;27;20061;-85
2021/06/21 12:28:22;;;;;;;5.07;1.50;;;15.50;90.80;;;;;;5162928;27;20472;-87
2021/06/21 12:30:52;;;;;;;6.22;1.45;;;15.50;90.80;;;;;;5169511;27;20046;-87
2021/06/21 12:33:26;;;;;;;6.38;1.80;;;15.50;90.90;;;;;;5158248;27;20091;-86
2021/06/21 12:36:06;;;;;;;5.78;1.50;;;15.50;90.90;;;;;;5165096;27;20050;-86
2021/06/21 12:38:33;;;;;;;4.93;1.67;;;15.50;90.60;;;;;;5164939;27;20038;-87
2021/06/21 12:41:09;;;;;;;3.70;1.30;;;15.50;90.80;;;;;;5161564;27;20550;-87
2021/06/21 12:43:34;;;;;;;6.85;1.48;;;15.50;90.90;;;;;;5170751;27;20038;-85
2021/06/21 12:46:00;;;;;;;6.95;1.55;;;15.50;90.80;;;;;;5172968;27;20548;-89
2021/06/21 12:48:26;;;;;;;6.32;1.58;;;15.50;90.80;;;;;;5164894;27;20046;-83
2021/06/21 12:50:51;;;;;;;6.05;1.58;;;15.40;90.90;;;;;;5161251;27;20095;-88
2021/06/21 12:53:17;;;;;;;5.43;1.50;;;15.40;90.90;;;;;;5171657;27;20435;-88
2021/06/21 12:55:43;;;;;;;5.15;1.60;;;15.50;90.90;;;;;;5158329;27;20099;-86
2021/06/21 12:58:09;;;;;;;6.32;1.70;;;15.50;91.00;;;;;;5163582;27;20139;-87
2021/06/21 13:00:46;;;;;;;5.45;1.40;;;15.50;91.00;;;;;;5160013;27;20102;-87